Latest Weather Observations for Adelaide Airport

IDS60801

Issued at 5:35 pm CST Monday 28 July 2014 (issued every 30 minutes, with the page automatically refreshed every 10 minutes)

About weather observations | Map of weather stations | Latest weather observations for SA | Other Formats
Station Details ID: 023034 Name: ADELAIDE AIRPORT Lat: -34.95 Lon: 138.52 Height: 2.0 m
Data from the previous 72 hours. | See also: Recent months at Adelaide Airport
Date/Time
CST
Temp
°C
App
Temp
°C
Dew
Point
Rel
Hum
%
Delta-T
°C
Wind Press
QNH
hPa
Press
MSL
hPa
Rain
since 9 am
mm
Dir
 
Spd
km/h
Gust
km/h
Spd
kts
Gust
kts
28/05:30pm 14.1 10.7 10.7 80 1.8 N 19 26 10 14 1016.1 - 0.0
28/05:00pm 14.7 11.3 11.1 79 1.9 NNW 20 30 11 16 1016.2 - 0.0
28/04:30pm 14.9 10.4 11.3 79 1.9 NNW 26 35 14 19 1015.9 - 0.0
28/04:00pm 15.5 11.3 11.2 75 2.3 N 24 32 13 17 1015.7 - 0.0
28/03:30pm 15.5 10.9 11.0 74 2.4 NNW 26 33 14 18 1015.9 - 0.0
28/03:00pm 15.8 11.2 10.9 72 2.6 NNW 26 33 14 18 1016.2 1016.2 0.0
28/02:30pm 15.3 11.1 11.2 76 2.2 NNW 24 32 13 17 1016.2 - 0.0
28/02:00pm 15.3 11.8 10.8 74 2.4 NNW 20 28 11 15 1016.5 - 0.0
28/01:30pm 15.4 12.1 10.9 74 2.4 N 19 26 10 14 1016.7 - 0.0
28/01:00pm 14.4 11.0 10.6 78 2.0 N 19 24 10 13 1017.2 - 0.0
28/12:30pm 14.3 10.9 11.1 81 1.7 NNW 20 28 11 15 1017.6 - 0.0
28/12:00pm 13.6 10.0 10.7 82 1.5 NNW 20 28 11 15 1017.9 1017.9 0.0
28/11:30am 13.5 9.8 10.2 80 1.7 N 20 26 11 14 1018.2 - 0.0
28/11:22am 13.4 9.6 9.9 79 1.8 N 20 26 11 14 1018.3 - 0.0
28/11:00am 13.5 9.3 9.8 78 1.9 N 22 30 12 16 1018.5 - 0.0
28/10:30am 13.1 9.4 9.6 79 1.8 NNW 19 26 10 14 1018.8 - 0.0
28/10:00am 13.1 10.2 9.8 80 1.7 NNW 15 22 8 12 1018.8 - 0.0
28/09:30am 13.3 10.8 9.8 79 1.8 N 13 17 7 9 1018.8 - 0.0
28/09:00am 12.7 10.5 9.3 80 1.7 NNE 11 15 6 8 1018.6 1018.6 0.0
28/08:30am 11.2 8.3 8.3 82 1.4 NNE 13 15 7 8 1018.5 - 0.0
28/08:00am 9.7 6.7 7.8 88 0.9 NNE 13 15 7 8 1018.4 - 0.0
28/07:30am 9.1 6.3 7.0 87 1.0 NNE 11 15 6 8 1018.0 - 0.0
28/07:00am 9.8 5.9 7.0 83 1.3 NNE 17 20 9 11 1017.8 - 0.0
28/06:30am 10.3 6.8 7.1 80 1.5 NNE 15 19 8 10 1017.5 - 0.0
28/06:00am 10.3 7.6 7.4 82 1.4 NE 11 13 6 7 1017.5 1017.5 0.0
28/05:42am 10.3 7.9 7.1 80 1.5 NE 9 11 5 6 1017.6 - 0.0
28/05:30am 10.2 7.0 7.0 80 1.5 NNE 13 15 7 8 1017.6 - 0.0
28/05:00am 10.6 7.4 7.0 78 1.7 NNE 13 17 7 9 1017.6 - 0.0
28/04:30am 10.1 6.6 7.1 81 1.4 NNE 15 19 8 10 1017.5 - 0.0
28/04:00am 10.1 6.5 6.9 80 1.5 NE 15 17 8 9 1017.8 - 0.0
28/03:30am 8.2 4.3 5.5 83 1.2 NE 15 17 8 9 1017.8 - 0.0
28/03:00am 7.2 3.6 4.9 85 1.0 NE 13 15 7 8 1017.9 1017.9 0.0
28/02:30am 8.0 5.2 5.3 83 1.2 NE 9 13 5 7 1018.2 - 0.0
28/02:00am 8.4 5.7 5.7 83 1.2 NE 9 11 5 6 1018.0 - 0.0
28/01:30am 8.9 6.2 5.8 81 1.4 NE 9 13 5 7 1018.0 - 0.0
28/01:00am 9.2 6.2 5.9 80 1.5 NE 11 11 6 6 1018.0 - 0.0
28/12:30am 10.2 7.3 6.3 77 1.8 NNE 11 13 6 7 1018.2 - 0.0
28/12:00am 10.6 7.4 6.8 77 1.8 NNE 13 15 7 8 1018.3 1018.3 0.0
 
Date/Time
CST
Temp
°C
App
Temp
°C
Dew
Point
Rel
Hum
%
Delta-T
°C
Wind Press
QNH
hPa
Press
MSL
hPa
Rain
since 9 am
mm
Dir
 
Spd
km/h
Gust
km/h
Spd
kts
Gust
kts
27/11:30pm 11.3 8.2 7.1 75 2.0 NNE 13 15 7 8 1018.6 - 0.0
27/11:00pm 11.0 7.0 6.5 74 2.1 NNE 17 19 9 10 1018.7 - 0.0
27/10:30pm 12.4 8.7 6.5 67 2.8 NNE 15 19 8 10 1018.9 - 0.0
27/10:00pm 12.3 8.3 6.6 68 2.7 N 17 24 9 13 1018.9 - 0.0
27/09:30pm 13.1 9.2 6.9 66 3.0 N 17 20 9 11 1019.1 - 0.0
27/09:00pm 13.9 10.0 6.9 62 3.4 N 17 20 9 11 1019.1 1019.1 0.0
27/08:30pm 13.6 9.3 7.0 64 3.2 N 19 26 10 14 1019.0 - 0.0
27/08:00pm 12.9 9.1 7.6 70 2.6 NNE 17 20 9 11 1019.2 - 0.0
27/07:30pm 12.9 8.8 7.8 71 2.5 NNE 19 20 10 11 1019.3 - 0.0
27/07:00pm 13.1 9.3 7.6 69 2.7 NNE 17 19 9 10 1019.5 - 0.0
27/06:30pm 14.0 9.9 7.9 66 3.0 N 19 24 10 13 1019.4 - 0.0
27/06:00pm 14.7 10.7 8.1 64 3.3 N 19 26 10 14 1019.4 1019.4 0.0
27/05:30pm 15.8 11.3 6.8 55 4.4 N 20 30 11 16 1019.2 - 0.0
27/05:00pm 16.0 11.7 7.1 55 4.4 N 19 22 10 12 1019.2 - 0.0
27/04:30pm 16.4 11.1 6.6 52 4.8 N 24 32 13 17 1019.0 - 0.0
27/04:00pm 16.7 10.5 6.0 49 5.2 N 28 39 15 21 1019.3 - 0.0
27/03:30pm 16.7 10.0 5.7 48 5.3 N 30 43 16 23 1019.2 - 0.0
27/03:00pm 16.3 9.3 5.9 50 5.0 N 32 43 17 23 1019.5 1019.5 0.0
27/02:30pm 16.1 9.1 5.9 50 4.9 N 32 43 17 23 1019.7 - 0.0
27/02:16pm 16.1 9.9 6.2 52 4.8 N 28 46 15 25 1019.9 - 0.0
27/02:00pm 16.1 10.0 6.4 52 4.7 N 28 37 15 20 1020.1 - 0.0
27/01:30pm 16.0 10.7 6.6 53 4.6 N 24 35 13 19 1020.2 - 0.0
27/01:00pm 15.6 9.6 7.0 56 4.2 N 28 35 15 19 1020.4 - 0.0
27/12:30pm 15.0 8.6 6.8 58 4.0 N 30 41 16 22 1021.4 - 0.0
27/12:00pm 15.0 7.8 6.0 55 4.3 N 33 44 18 24 1021.8 1021.8 0.0
27/11:38am 15.4 9.1 5.8 52 4.6 N 28 46 15 25 1022.4 - 0.0
27/11:30am 15.1 8.8 5.6 53 4.5 N 28 39 15 21 1022.4 - 0.0
27/11:00am 14.4 7.4 6.0 57 4.0 N 32 37 17 20 1022.9 - 0.0
27/10:30am 14.8 8.5 5.7 54 4.3 N 28 37 15 20 1023.3 - 0.0
27/10:00am 13.7 7.8 5.6 58 3.8 N 26 33 14 18 1023.4 - 0.0
27/09:30am 12.7 7.7 6.4 65 3.0 N 22 33 12 18 1023.9 - 0.0
27/09:00am 10.9 6.3 6.4 74 2.1 N 20 28 11 15 1024.3 1024.3 0.2
27/08:30am 9.7 6.0 6.2 79 1.6 N 15 19 8 10 1024.2 - 0.2
27/08:00am 9.8 5.7 6.1 78 1.7 NNE 17 22 9 12 1023.9 - 0.2
27/07:30am 8.6 3.8 5.7 82 1.3 NNE 20 26 11 14 1023.7 - 0.2
27/07:00am 8.5 3.9 5.6 82 1.3 NNE 19 24 10 13 1023.8 - 0.2
27/06:30am 8.7 4.9 5.6 81 1.4 NNE 15 19 8 10 1023.9 - 0.2
27/06:00am 8.5 4.3 5.8 83 1.2 NNE 17 20 9 11 1023.7 1023.7 0.2
27/05:30am 8.6 4.1 6.0 84 1.2 NNE 19 24 10 13 1023.5 - 0.2
27/05:00am 8.9 4.4 6.0 82 1.3 NNE 19 26 10 14 1023.6 - 0.2
27/04:30am 8.6 4.5 6.2 85 1.1 NNE 17 22 9 12 1023.9 - 0.2
27/04:00am 7.3 3.4 5.3 87 0.9 NNE 15 19 8 10 1024.3 - 0.2
27/03:30am 7.0 3.4 4.9 86 0.9 NE 13 13 7 7 1024.4 - 0.2
27/03:00am 6.8 2.8 4.7 86 0.9 NNE 15 17 8 9 1024.5 1024.5 0.0
27/02:30am 6.7 2.7 4.9 88 0.8 NE 15 17 8 9 1024.4 - 0.0
27/02:00am 6.9 2.9 5.1 88 0.8 NE 15 17 8 9 1024.6 - 0.0
27/01:30am 7.2 2.9 5.1 86 0.9 NE 17 19 9 10 1024.6 - 0.0
27/01:00am 7.1 3.1 5.0 86 0.9 NE 15 17 8 9 1024.8 - 0.0
27/12:30am 7.1 3.3 5.8 91 0.6 NE 15 15 8 8 1025.1 - 0.0
27/12:00am 8.3 4.6 6.3 87 0.9 NE 15 17 8 9 1025.2 1025.2 0.0
 
Date/Time
CST
Temp
°C
App
Temp
°C
Dew
Point
Rel
Hum
%
Delta-T
°C
Wind Press
QNH
hPa
Press
MSL
hPa
Rain
since 9 am
mm
Dir
 
Spd
km/h
Gust
km/h
Spd
kts
Gust
kts
26/11:30pm 8.0 4.2 6.0 87 0.9 NE 15 17 8 9 1025.5 - 0.0
26/11:00pm 7.7 3.9 5.9 88 0.8 NE 15 17 8 9 1025.7 - 0.0
26/10:30pm 7.8 4.0 6.0 88 0.8 NE 15 15 8 8 1026.0 - 0.0
26/10:00pm 8.4 5.1 6.2 86 1.0 NE 13 19 7 10 1026.1 - 0.0
26/09:30pm 8.5 5.2 6.3 86 1.0 NE 13 13 7 7 1026.3 - 0.0
26/09:00pm 9.0 5.8 6.8 86 1.0 NE 13 13 7 7 1026.3 1026.3 0.0
26/08:30pm 8.2 5.8 6.9 91 0.6 ENE 9 11 5 6 1026.3 - 0.0
26/08:00pm 10.0 7.6 7.2 83 1.3 NE 9 9 5 5 1026.5 - 0.0
26/07:30pm 9.5 6.8 7.4 87 1.0 NE 11 13 6 7 1026.4 - 0.0
26/07:00pm 9.6 7.4 7.7 88 0.9 NE 9 11 5 6 1026.5 - 0.0
26/06:30pm 10.4 8.3 8.3 87 1.0 N 9 11 5 6 1026.3 - 0.0
26/06:00pm 10.9 8.9 8.7 86 1.1 N 9 13 5 7 1026.2 1026.2 0.0
26/05:30pm 12.9 10.6 9.1 78 1.9 N 11 13 6 7 1026.1 - 0.0
26/05:00pm 14.0 10.6 9.0 72 2.5 NNW 17 20 9 11 1026.0 - 0.0
26/04:30pm 14.4 11.1 9.5 72 2.5 NNW 17 20 9 11 1025.9 - 0.0
26/04:00pm 14.6 11.0 9.7 72 2.5 NW 19 22 10 12 1026.0 - 0.0
26/03:30pm 14.9 11.2 9.6 70 2.7 NW 19 24 10 13 1026.0 - 0.0
26/03:00pm 14.9 10.9 9.2 68 2.9 WNW 20 24 11 13 1025.9 1025.9 0.0
26/02:30pm 14.8 11.5 9.7 71 2.6 NNW 17 22 9 12 1025.8 - 0.0
26/02:00pm 15.1 12.4 10.3 73 2.5 NNW 15 20 8 11 1026.0 - 0.0
26/01:30pm 14.9 12.6 10.5 75 2.3 N 13 17 7 9 1026.1 - 0.0
26/01:00pm 14.2 12.1 11.0 81 1.7 NE 13 17 7 9 1026.5 - 0.0
26/12:30pm 12.9 11.1 11.0 88 1.0 N 11 15 6 8 1027.2 - 0.0
26/12:00pm 12.2 10.0 10.8 91 0.7 N 13 17 7 9 1027.6 1027.6 0.0
26/11:30am 11.8 9.7 11.0 95 0.4 N 13 15 7 8 1028.0 - 0.0
26/11:10am 11.6 9.8 11.0 96 0.3 N 11 15 6 8 1028.1 - 0.0
26/11:00am 11.1 9.3 10.7 97 0.2 N 11 17 6 9 1028.2 - 0.0
26/10:47am 10.7 8.5 10.7 100 0.0 NNE 13 15 7 8 1028.2 - 0.0
26/10:30am 10.6 8.3 10.6 100 0.0 N 13 17 7 9 1028.4 - 0.0
26/10:00am 10.8 8.6 10.8 100 0.0 NNE 13 15 7 8 1028.2 - 0.0
26/09:44am 10.5 8.2 10.5 100 0.0 NNE 13 15 7 8 1028.3 - 0.0
26/09:30am 10.4 8.1 10.4 100 0.0 N 13 15 7 8 1028.2 - 0.0
26/09:00am 10.2 8.2 10.2 100 0.0 N 11 15 6 8 1028.0 1028.0 0.2
26/08:30am 10.4 8.0 10.2 99 0.1 N 13 13 7 7 1027.6 - 0.2
26/08:00am 10.4 8.0 10.2 99 0.1 NNE 13 15 7 8 1027.1 - 0.2
26/07:30am 10.2 8.2 10.0 99 0.1 NNE 11 15 6 8 1026.7 - 0.2
26/07:00am 10.0 7.6 10.0 100 0.0 NNE 13 15 7 8 1026.4 - 0.2
26/06:30am 9.9 7.4 9.7 99 0.1 N 13 17 7 9 1026.2 - 0.2
26/06:00am 10.1 7.7 9.9 99 0.1 NNE 13 13 7 7 1025.9 1025.9 0.2
26/05:30am 10.2 8.2 10.0 99 0.1 NE 11 13 6 7 1025.5 - 0.2
26/05:00am 10.0 7.9 9.8 99 0.1 NE 11 13 6 7 1025.3 - 0.2
26/04:30am 9.9 7.7 9.5 97 0.2 NE 11 13 6 7 1025.1 - 0.2
26/04:00am 10.1 8.0 9.9 99 0.1 NNE 11 13 6 7 1024.9 - 0.2
26/03:30am 10.2 8.1 9.8 97 0.2 NNE 11 13 6 7 1024.8 - 0.2
26/03:00am 10.1 8.0 9.7 97 0.2 NNE 11 13 6 7 1024.7 1024.7 0.2
26/02:47am 10.1 8.0 9.9 99 0.1 NNE 11 13 6 7 1024.7 - 0.2
26/02:30am 10.0 8.2 9.6 97 0.2 NE 9 11 5 6 1024.6 - 0.2
26/02:00am 9.0 6.6 8.6 97 0.2 NE 11 13 6 7 1024.4 - 0.2
26/01:49am 8.6 5.8 8.4 99 0.1 NE 13 15 7 8 1024.3 - 0.2
26/01:44am 9.0 6.3 8.8 99 0.1 NE 13 15 7 8 1024.2 - 0.2
26/01:37am 9.5 7.2 9.1 97 0.2 NE 11 13 6 7 1024.2 - 0.2
26/01:30am 9.4 7.1 9.0 97 0.2 NNE 11 11 6 6 1024.2 - 0.2
26/01:00am 10.1 7.6 9.7 97 0.2 NE 13 13 7 7 1024.0 - 0.2
26/12:30am 10.1 7.9 9.5 96 0.3 NNE 11 13 6 7 1024.2 - 0.2
26/12:00am 10.9 9.6 9.9 93 0.5 ENE 7 9 4 5 1024.1 1024.1 0.2
 
Date/Time
CST
Temp
°C
App
Temp
°C
Dew
Point
Rel
Hum
%
Delta-T
°C
Wind Press
QNH
hPa
Press
MSL
hPa
Rain
since 9 am
mm
Dir
 
Spd
km/h
Gust
km/h
Spd
kts
Gust
kts
25/11:30pm 10.7 9.6 10.1 96 0.3 SE 6 7 3 4 1023.9 - 0.2
25/11:00pm 12.1 10.3 10.9 92 0.6 NW 11 15 6 8 1023.6 - 0.2
25/10:30pm 11.8 10.0 10.8 94 0.5 NW 11 13 6 7 1023.4 - 0.2
25/10:00pm 12.0 10.2 10.8 92 0.6 WNW 11 13 6 7 1023.3 - 0.2
25/09:30pm 12.2 10.4 10.8 91 0.7 WNW 11 13 6 7 1023.0 - 0.2
25/09:00pm 12.5 10.7 10.8 89 0.9 W 11 15 6 8 1022.9 1022.9 0.2
25/08:30pm 13.0 11.7 11.3 89 0.9 W 9 13 5 7 1022.6 - 0.2
25/08:00pm 13.2 11.9 11.3 88 1.0 W 9 11 5 6 1022.4 - 0.2
25/07:30pm 13.2 12.1 11.9 92 0.7 W 9 13 5 7 1022.1 - 0.2
25/07:00pm 13.2 13.0 11.7 91 0.8 SW 4 9 2 5 1021.8 - 0.2
25/06:30pm 13.2 12.4 11.7 91 0.8 W 7 11 4 6 1021.5 - 0.2
25/06:00pm 13.4 12.2 11.7 89 0.9 WNW 9 11 5 6 1020.9 1020.9 0.2

Other Formats:

Comma delimited format used in spreadsheet applications
http://www.bom.gov.au/fwo/IDS60801/IDS60801.94672.axf

JavaScript Object Notation format (JSON) in row-major order
http://www.bom.gov.au/fwo/IDS60801/IDS60801.94672.json